createdAt,value
2022-08-09T00:00:04.365Z,99.90
2022-08-09T00:02:43.060Z,99.90
2022-08-09T00:06:15.396Z,99.90
2022-08-09T00:08:09.937Z,99.90
2022-08-09T00:10:39.902Z,99.90
2022-08-09T00:13:17.157Z,99.90
2022-08-09T00:16:00.083Z,99.90
2022-08-09T00:18:35.621Z,99.90
2022-08-09T00:21:05.394Z,99.90
2022-08-09T00:23:56.446Z,99.90
2022-08-09T00:26:32.497Z,99.90
2022-08-09T00:29:03.021Z,99.90
2022-08-09T00:31:58.400Z,99.90
2022-08-09T00:34:20.734Z,99.90
2022-08-09T00:36:49.287Z,99.90
2022-08-09T00:40:12.293Z,99.90
2022-08-09T00:44:19.392Z,99.90
2022-08-09T00:44:53.931Z,99.90
2022-08-09T00:47:24.947Z,99.90
2022-08-09T00:49:56.857Z,99.90
2022-08-09T00:52:30.640Z,99.90
2022-08-09T00:55:02.087Z,99.90
2022-08-09T00:57:33.800Z,99.90
2022-08-09T01:00:21.540Z,99.90
2022-08-09T01:02:58.025Z,99.90
2022-08-09T01:05:54.601Z,99.90
2022-08-09T01:08:49.700Z,99.90
2022-08-09T01:11:53.214Z,99.90
2022-08-09T01:14:40.097Z,99.90
2022-08-09T01:17:19.461Z,99.90
2022-08-09T01:20:02.572Z,99.90
2022-08-09T01:22:54.840Z,99.90
2022-08-09T01:26:00.243Z,99.90
2022-08-09T01:28:30.673Z,99.90
2022-08-09T01:31:01.871Z,99.90
2022-08-09T01:33:40.621Z,99.90
2022-08-09T01:36:15.116Z,99.90
2022-08-09T01:38:47.969Z,99.90
2022-08-09T01:41:18.404Z,99.90
2022-08-09T01:43:59.254Z,99.90
2022-08-09T01:46:38.591Z,99.90
2022-08-09T01:49:14.561Z,99.90
2022-08-09T01:52:14.549Z,99.90
2022-08-09T01:54:50.760Z,99.90
2022-08-09T01:57:23.258Z,99.90
2022-08-09T01:59:59.871Z,99.90
2022-08-09T02:02:32.675Z,99.90
2022-08-09T02:05:15.431Z,99.90
2022-08-09T02:08:39.746Z,99.90
2022-08-09T02:10:55.474Z,99.90
2022-08-09T02:13:26.076Z,99.90
2022-08-09T02:16:07.679Z,99.90
2022-08-09T02:18:38.152Z,99.90
2022-08-09T02:21:17.231Z,99.90
2022-08-09T02:23:56.576Z,99.90
2022-08-09T02:26:28.244Z,99.90
2022-08-09T02:29:00.354Z,99.90
2022-08-09T02:31:34.170Z,99.90
2022-08-09T02:34:40.835Z,99.90
2022-08-09T02:37:14.431Z,99.90
2022-08-09T02:39:50.003Z,99.90
2022-08-09T02:42:28.065Z,99.90
2022-08-09T02:45:03.244Z,99.90
2022-08-09T02:47:46.456Z,99.90
2022-08-09T02:50:29.108Z,99.90
2022-08-09T02:53:02.582Z,99.90
2022-08-09T02:55:46.514Z,99.90
2022-08-09T02:58:35.867Z,99.90
2022-08-09T03:01:10.827Z,99.90
2022-08-09T03:04:17.449Z,99.90
2022-08-09T03:06:34.298Z,99.90
2022-08-09T03:09:05.071Z,99.90
2022-08-09T03:12:05.921Z,99.90
2022-08-09T03:14:28.169Z,99.90
2022-08-09T03:16:58.391Z,99.90
2022-08-09T03:19:59.138Z,99.90
2022-08-09T03:22:25.207Z,99.90
2022-08-09T03:25:21.754Z,99.90
2022-08-09T03:27:55.134Z,99.90
2022-08-09T03:30:29.861Z,99.90
2022-08-09T03:33:17.701Z,99.90
2022-08-09T03:36:14.056Z,99.90
2022-08-09T03:38:44.560Z,99.90
2022-08-09T03:41:15.270Z,99.90
2022-08-09T03:44:03.148Z,99.90
2022-08-09T03:46:33.255Z,99.90
2022-08-09T03:49:04.110Z,99.90
2022-08-09T03:51:55.923Z,99.90
2022-08-09T03:54:38.396Z,99.90
2022-08-09T03:57:18.558Z,99.90
2022-08-09T03:59:56.074Z,99.90
2022-08-09T04:02:32.269Z,99.90
2022-08-09T04:05:06.574Z,99.90
2022-08-09T04:07:53.386Z,99.90
2022-08-09T04:10:29.699Z,99.90
2022-08-09T04:13:03.760Z,99.90
2022-08-09T04:15:42.746Z,99.90
2022-08-09T04:18:24.922Z,99.90
2022-08-09T04:20:55.533Z,99.90
2022-08-09T04:23:25.070Z,99.90
2022-08-09T04:25:58.853Z,99.90
2022-08-09T04:28:33.024Z,99.90
2022-08-09T04:31:05.827Z,99.90
2022-08-09T04:33:47.377Z,99.90
2022-08-09T04:36:26.328Z,99.90
2022-08-09T04:38:56.446Z,99.90
2022-08-09T04:41:33.220Z,99.90
2022-08-09T04:44:11.155Z,99.90
2022-08-09T04:46:59.580Z,99.90
2022-08-09T04:49:53.184Z,99.90
2022-08-09T04:52:27.059Z,99.90
2022-08-09T04:54:57.040Z,99.90
2022-08-09T04:57:25.385Z,99.90
2022-08-09T04:59:55.127Z,99.90
2022-08-09T05:02:27.299Z,99.90
2022-08-09T05:04:56.168Z,99.90
2022-08-09T05:07:29.291Z,99.90
2022-08-09T05:10:02.134Z,99.90
2022-08-09T05:12:31.183Z,99.90
2022-08-09T05:15:03.277Z,99.90
2022-08-09T05:18:39.967Z,99.90
2022-08-09T05:20:19.723Z,99.90
2022-08-09T05:23:55.221Z,99.90
2022-08-09T05:25:36.354Z,99.90
2022-08-09T05:28:04.903Z,99.90
2022-08-09T05:30:34.649Z,99.90
2022-08-09T05:33:04.362Z,99.90
2022-08-09T05:35:39.054Z,99.90
2022-08-09T05:38:21.719Z,99.90
2022-08-09T05:40:50.820Z,99.90
2022-08-09T05:43:20.725Z,99.90
2022-08-09T05:45:55.942Z,99.90
2022-08-09T05:48:33.054Z,99.90
2022-08-09T05:51:43.098Z,99.90
2022-08-09T05:53:56.674Z,99.90
2022-08-09T05:56:27.405Z,99.90
2022-08-09T05:58:59.361Z,99.90
2022-08-09T06:01:34.086Z,99.90
2022-08-09T06:04:10.515Z,99.90
2022-08-09T06:06:45.180Z,99.90
2022-08-09T06:09:41.106Z,99.90
2022-08-09T06:12:07.056Z,99.90
2022-08-09T06:14:35.990Z,99.90
2022-08-09T06:17:09.468Z,99.90
2022-08-09T06:19:38.667Z,99.90
2022-08-09T06:22:06.900Z,99.90
2022-08-09T06:24:42.980Z,99.90
2022-08-09T06:27:10.783Z,99.90
2022-08-09T06:29:48.399Z,99.90
2022-08-09T06:32:59.193Z,99.90
2022-08-09T06:35:20.408Z,99.90
2022-08-09T06:37:53.012Z,99.90
2022-08-09T06:40:34.407Z,99.90
2022-08-09T06:43:02.241Z,99.90
2022-08-09T06:46:06.520Z,99.90
2022-08-09T06:48:30.340Z,99.90
2022-08-09T06:51:00.249Z,99.90
2022-08-09T06:53:38.220Z,99.90
2022-08-09T06:56:09.269Z,99.90
2022-08-09T07:00:53.058Z,99.90
2022-08-09T07:01:35.698Z,99.90
2022-08-09T07:04:20.109Z,99.90
2022-08-09T07:06:53.175Z,99.90
2022-08-09T07:09:55.598Z,99.90
2022-08-09T07:12:17.676Z,99.90
2022-08-09T07:14:51.444Z,99.90
2022-08-09T07:17:22.783Z,99.90
2022-08-09T07:19:55.488Z,99.90
2022-08-09T07:22:34.453Z,99.90
2022-08-09T07:25:05.125Z,99.90
2022-08-09T07:27:42.642Z,99.90
2022-08-09T07:30:13.512Z,99.90
2022-08-09T07:32:42.453Z,99.90
2022-08-09T07:35:12.217Z,99.90
2022-08-09T07:37:45.775Z,99.90
2022-08-09T07:40:18.301Z,99.90
2022-08-09T07:42:54.915Z,99.90
2022-08-09T07:45:40.323Z,99.90
2022-08-09T07:48:28.414Z,99.90
2022-08-09T07:51:09.639Z,99.90
2022-08-09T07:54:04.247Z,99.90
2022-08-09T07:56:38.760Z,99.90
2022-08-09T07:59:25.526Z,99.90
2022-08-09T08:02:01.649Z,99.90
2022-08-09T08:04:31.607Z,99.90
2022-08-09T08:07:09.487Z,99.90
2022-08-09T08:10:07.883Z,99.90
2022-08-09T08:12:45.164Z,99.90
2022-08-09T08:15:17.417Z,99.90
2022-08-09T08:17:58.428Z,99.90
2022-08-09T08:20:30.380Z,99.90
2022-08-09T08:23:15.974Z,99.90
2022-08-09T08:25:53.892Z,99.90
2022-08-09T08:28:35.042Z,99.90
2022-08-09T08:31:14.368Z,99.90
2022-08-09T08:33:55.599Z,99.90
2022-08-09T08:36:28.952Z,99.90
2022-08-09T08:38:58.814Z,99.90
2022-08-09T08:41:50.874Z,99.90
2022-08-09T08:44:23.155Z,99.90
2022-08-09T08:47:02.059Z,99.90
2022-08-09T08:49:46.473Z,99.90
2022-08-09T08:52:53.100Z,99.90
2022-08-09T08:55:09.899Z,99.90
2022-08-09T08:57:38.179Z,99.90
2022-08-09T09:00:16.864Z,99.90
2022-08-09T09:02:53.935Z,99.90
2022-08-09T09:05:57.771Z,99.90
2022-08-09T09:08:29.915Z,99.90
2022-08-09T09:11:04.477Z,99.90
2022-08-09T09:13:54.814Z,99.90
2022-08-09T09:16:30.887Z,99.90
2022-08-09T09:22:11.329Z,99.90
2022-08-09T09:26:01.910Z,99.90
2022-08-09T09:28:05.426Z,99.90
2022-08-09T09:30:40.855Z,99.90
2022-08-09T09:33:15.308Z,99.90
2022-08-09T09:36:20.348Z,99.90
2022-08-09T09:38:57.254Z,99.90
2022-08-09T09:41:33.403Z,99.90
2022-08-09T09:44:27.849Z,99.90
2022-08-09T09:47:09.362Z,99.90
2022-08-09T09:50:07.337Z,99.90
2022-08-09T09:52:36.527Z,99.90
2022-08-09T09:55:16.165Z,99.90
2022-08-09T09:58:17.435Z,99.90
2022-08-09T10:00:59.156Z,99.90
2022-08-09T10:03:57.063Z,99.90
2022-08-09T10:06:29.033Z,99.90
2022-08-09T10:09:11.793Z,99.90
2022-08-09T10:12:12.458Z,99.90
2022-08-09T10:14:50.025Z,99.90
2022-08-09T10:17:51.098Z,99.90
2022-08-09T10:20:27.068Z,99.90
2022-08-09T10:23:19.956Z,99.90
2022-08-09T10:26:07.982Z,99.90
2022-08-09T10:28:38.740Z,99.90
2022-08-09T10:34:09.823Z,99.90
2022-08-09T10:36:45.760Z,99.90
2022-08-09T10:39:19.193Z,99.90
2022-08-09T10:41:48.316Z,99.40
2022-08-09T10:44:22.181Z,99.90
2022-08-09T10:48:20.469Z,99.90
2022-08-09T10:50:27.272Z,99.90
2022-08-09T10:53:19.374Z,99.90
2022-08-09T10:55:58.523Z,99.60
2022-08-09T10:58:37.446Z,99.90
2022-08-09T11:03:14.871Z,99.90
2022-08-09T11:04:28.264Z,99.90
2022-08-09T11:07:00.741Z,99.90
2022-08-09T11:09:38.124Z,98.90
2022-08-09T11:12:10.466Z,99.90
2022-08-09T11:14:41.853Z,99.50
2022-08-09T11:17:14.874Z,99.30
2022-08-09T11:20:12.251Z,97.10
2022-08-09T11:22:55.758Z,96.80
2022-08-09T11:25:36.241Z,98.30
2022-08-09T11:28:34.693Z,94.50
2022-08-09T11:31:43.135Z,96.30
2022-08-09T11:34:42.998Z,96.30
2022-08-09T11:37:25.607Z,94.40
2022-08-09T11:40:04.549Z,93.90
2022-08-09T11:42:48.502Z,93.50
2022-08-09T11:45:42.950Z,94.20
2022-08-09T11:48:25.097Z,93.70
2022-08-09T11:52:50.006Z,92.30
2022-08-09T11:53:58.409Z,91.20
2022-08-09T11:56:42.786Z,92.50
2022-08-09T11:59:30.336Z,90.80
2022-08-09T12:02:18.086Z,88.60
2022-08-09T12:04:54.633Z,90.00
2022-08-09T12:07:41.112Z,90.00
2022-08-09T12:10:31.774Z,90.60
2022-08-09T12:13:03.608Z,90.00
2022-08-09T12:15:52.559Z,89.10
2022-08-09T12:18:30.089Z,90.80
2022-08-09T12:21:02.435Z,90.90
2022-08-09T12:23:56.243Z,87.20
2022-08-09T12:26:25.464Z,90.70
2022-08-09T12:29:15.034Z,91.00
2022-08-09T12:32:02.231Z,91.20
2022-08-09T12:34:36.882Z,91.00
2022-08-09T12:37:21.670Z,91.60
2022-08-09T12:40:06.408Z,92.40
2022-08-09T12:42:35.047Z,92.50
2022-08-09T12:45:32.037Z,89.50
2022-08-09T12:47:52.847Z,90.90
2022-08-09T12:50:24.964Z,92.00
2022-08-09T12:53:09.191Z,92.00
2022-08-09T12:56:14.894Z,92.30
2022-08-09T12:58:28.828Z,93.30
2022-08-09T13:00:57.862Z,93.20
2022-08-09T13:03:53.222Z,90.20
2022-08-09T13:06:34.807Z,92.40
2022-08-09T13:09:07.850Z,92.20
2022-08-09T13:11:43.982Z,91.80
2022-08-09T13:14:42.804Z,92.70
2022-08-09T13:17:16.002Z,93.80
2022-08-09T13:20:10.070Z,92.80
2022-08-09T13:23:05.358Z,92.80
2022-08-09T13:25:23.288Z,93.70
2022-08-09T13:27:55.984Z,93.90
2022-08-09T13:30:51.291Z,92.30
2022-08-09T13:33:22.943Z,92.40
2022-08-09T13:36:24.397Z,91.80
2022-08-09T13:38:54.847Z,93.70
2022-08-09T13:41:58.091Z,90.60
2022-08-09T13:44:16.369Z,91.30
2022-08-09T13:47:27.325Z,90.30
2022-08-09T13:49:39.663Z,92.30
2022-08-09T13:52:24.793Z,93.90
2022-08-09T13:54:59.780Z,90.40
2022-08-09T13:57:35.671Z,89.70
2022-08-09T14:00:10.424Z,91.00
2022-08-09T14:02:42.776Z,89.00
2022-08-09T14:05:56.892Z,88.10
2022-08-09T14:08:17.860Z,92.10
2022-08-09T14:10:50.614Z,92.60
2022-08-09T14:14:15.717Z,92.00
2022-08-09T14:16:18.060Z,91.90
2022-08-09T14:18:49.708Z,91.80
2022-08-09T14:21:22.577Z,93.20
2022-08-09T14:23:54.933Z,92.20
2022-08-09T14:26:31.696Z,93.00
2022-08-09T14:30:04.271Z,91.80
2022-08-09T14:31:56.259Z,93.60
2022-08-09T14:34:27.490Z,92.20
2022-08-09T14:37:06.847Z,92.00
2022-08-09T14:39:47.082Z,92.90
2022-08-09T14:42:30.357Z,93.10
2022-08-09T14:46:45.901Z,92.10
2022-08-09T14:48:00.267Z,93.30
2022-08-09T14:50:32.315Z,93.90
2022-08-09T14:53:02.595Z,95.80
2022-08-09T14:55:33.181Z,94.60
2022-08-09T14:58:05.099Z,93.70
2022-08-09T15:00:36.062Z,95.50
2022-08-09T15:03:09.004Z,94.30
2022-08-09T15:05:39.665Z,95.50
2022-08-09T15:08:18.897Z,96.40
2022-08-09T15:11:00.312Z,95.60
2022-08-09T15:13:47.984Z,95.60
2022-08-09T15:16:18.115Z,97.20
2022-08-09T15:18:48.472Z,95.20
2022-08-09T15:22:01.843Z,91.40
2022-08-09T15:24:11.461Z,92.60
2022-08-09T15:26:46.538Z,90.80
2022-08-09T15:30:48.497Z,91.90
2022-08-09T15:32:04.332Z,92.20
2022-08-09T15:34:35.392Z,95.30
2022-08-09T15:37:38.024Z,94.80
2022-08-09T15:40:20.008Z,89.10
2022-08-09T15:42:49.488Z,91.40
2022-08-09T15:45:21.804Z,93.60
2022-08-09T15:48:05.319Z,91.90
2022-08-09T15:50:44.107Z,93.70
2022-08-09T15:53:17.848Z,94.80
2022-08-09T15:58:50.600Z,97.60
2022-08-09T16:01:19.141Z,97.60
2022-08-09T16:03:47.446Z,98.50
2022-08-09T16:06:32.727Z,97.00
2022-08-09T16:09:05.976Z,97.40
2022-08-09T16:11:34.006Z,98.70
2022-08-09T16:14:07.201Z,99.10
2022-08-09T16:16:45.743Z,99.00
2022-08-09T16:19:16.818Z,99.00
2022-08-09T16:21:51.633Z,98.20
2022-08-09T16:24:33.175Z,98.50
2022-08-09T16:27:05.137Z,96.00
2022-08-09T16:29:38.014Z,95.40
2022-08-09T16:32:34.183Z,92.80
2022-08-09T16:35:02.974Z,93.70
2022-08-09T16:37:54.527Z,94.50
2022-08-09T16:40:29.480Z,94.00
2022-08-09T16:43:07.948Z,96.40
2022-08-09T16:45:37.199Z,97.80
2022-08-09T16:48:38.848Z,98.10
2022-08-09T16:51:08.213Z,98.70
2022-08-09T16:54:24.835Z,99.00
2022-08-09T16:56:35.006Z,98.30
2022-08-09T16:59:10.594Z,96.90
2022-08-09T17:01:39.124Z,97.20
2022-08-09T17:04:10.803Z,97.10
2022-08-09T17:08:40.156Z,97.30
2022-08-09T17:09:46.222Z,97.60
2022-08-09T17:12:16.126Z,97.90
2022-08-09T17:14:49.059Z,99.00
2022-08-09T17:17:29.260Z,99.40
2022-08-09T17:20:28.604Z,99.40
2022-08-09T17:22:52.110Z,99.80
2022-08-09T17:25:22.110Z,99.90
2022-08-09T17:28:04.868Z,99.90
2022-08-09T17:30:39.401Z,99.90
2022-08-09T17:33:57.711Z,99.90
2022-08-09T17:36:41.126Z,99.90
2022-08-09T17:39:25.012Z,99.90
2022-08-09T17:42:01.486Z,99.90
2022-08-09T17:44:38.981Z,99.90
2022-08-09T17:47:15.718Z,99.90
2022-08-09T17:49:51.284Z,99.90
2022-08-09T17:52:27.142Z,99.90
2022-08-09T17:54:55.326Z,99.90
2022-08-09T17:58:03.245Z,99.90
2022-08-09T18:00:13.641Z,99.90
2022-08-09T18:02:41.885Z,99.90
2022-08-09T18:05:38.847Z,99.90
2022-08-09T18:08:13.403Z,99.90
2022-08-09T18:10:46.042Z,99.90
2022-08-09T18:13:43.666Z,99.90
2022-08-09T18:16:11.955Z,99.90
2022-08-09T18:18:43.363Z,99.90
2022-08-09T18:21:23.445Z,99.90
2022-08-09T18:24:09.823Z,99.90
2022-08-09T18:26:46.986Z,99.90
2022-08-09T18:30:41.573Z,99.90
2022-08-09T18:32:07.391Z,99.90
2022-08-09T18:34:36.386Z,99.90
2022-08-09T18:37:05.729Z,99.90
2022-08-09T18:39:39.595Z,99.90
2022-08-09T18:42:09.739Z,99.90
2022-08-09T18:44:40.321Z,99.90
2022-08-09T18:47:15.769Z,99.90
2022-08-09T18:49:46.474Z,99.90
2022-08-09T18:52:18.842Z,99.90
2022-08-09T18:54:53.404Z,99.90
2022-08-09T18:57:24.165Z,99.90
2022-08-09T19:00:19.156Z,99.90
2022-08-09T19:02:50.945Z,99.90
2022-08-09T19:05:58.683Z,99.90
2022-08-09T19:08:19.785Z,99.90
2022-08-09T19:10:48.077Z,99.90
2022-08-09T19:13:21.986Z,99.90
2022-08-09T19:15:52.838Z,99.90
2022-08-09T19:18:35.734Z,99.90
2022-08-09T19:21:10.499Z,99.90
2022-08-09T19:24:33.642Z,99.90
2022-08-09T19:26:32.342Z,99.90
2022-08-09T19:29:15.274Z,99.90
2022-08-09T19:31:48.601Z,99.90
2022-08-09T19:34:22.933Z,99.90
2022-08-09T19:36:54.209Z,99.90
2022-08-09T19:39:43.944Z,99.90
2022-08-09T19:42:15.018Z,99.90
2022-08-09T19:44:50.684Z,99.90
2022-08-09T19:47:22.714Z,99.90
2022-08-09T19:50:06.793Z,99.90
2022-08-09T19:52:49.343Z,99.90
2022-08-09T19:55:25.787Z,99.90
2022-08-09T19:58:16.779Z,99.90
2022-08-09T20:00:46.452Z,99.90
2022-08-09T20:04:10.846Z,99.90
2022-08-09T20:06:04.981Z,99.90
2022-08-09T20:08:56.993Z,99.90
2022-08-09T20:11:26.823Z,99.90
2022-08-09T20:13:55.872Z,99.90
2022-08-09T20:16:36.762Z,99.90
2022-08-09T20:19:47.627Z,99.90
2022-08-09T20:22:01.183Z,99.90
2022-08-09T20:24:33.953Z,99.90
2022-08-09T20:27:05.618Z,99.90
2022-08-09T20:29:38.842Z,99.90
2022-08-09T20:32:31.341Z,99.90
2022-08-09T20:34:56.484Z,99.90
2022-08-09T20:37:24.878Z,99.90
2022-08-09T20:40:17.725Z,99.90
2022-08-09T20:42:53.341Z,99.90
2022-08-09T20:45:59.170Z,99.90
2022-08-09T20:48:21.213Z,99.90
2022-08-09T20:50:55.797Z,99.90
2022-08-09T20:53:36.940Z,99.90
2022-08-09T20:56:08.999Z,99.90
2022-08-09T20:58:38.099Z,99.90
2022-08-09T21:01:33.644Z,99.90
2022-08-09T21:04:08.205Z,99.90
2022-08-09T21:06:44.250Z,99.90
2022-08-09T21:09:13.898Z,99.90
2022-08-09T21:14:31.136Z,99.90
2022-08-09T21:17:00.472Z,99.90
2022-08-09T21:20:18.755Z,99.90
2022-08-09T21:22:35.842Z,99.90
2022-08-09T21:25:22.996Z,99.90
2022-08-09T21:27:53.467Z,99.90
2022-08-09T21:30:24.008Z,99.90
2022-08-09T21:32:53.262Z,99.90
2022-08-09T21:35:21.951Z,99.90
2022-08-09T21:37:59.529Z,99.90
2022-08-09T21:40:32.584Z,99.90
2022-08-09T21:43:01.117Z,99.90
2022-08-09T21:45:30.424Z,99.90
2022-08-09T21:47:59.134Z,99.90
2022-08-09T21:50:38.619Z,99.90
2022-08-09T21:53:15.691Z,99.90
2022-08-09T21:55:51.888Z,99.90
2022-08-09T21:58:19.559Z,99.90
2022-08-09T22:00:48.608Z,99.90
2022-08-09T22:03:25.943Z,99.90
2022-08-09T22:05:54.904Z,99.90
2022-08-09T22:08:27.602Z,99.90
2022-08-09T22:11:05.040Z,99.90
2022-08-09T22:13:44.580Z,99.90
2022-08-09T22:16:12.329Z,99.90
2022-08-09T22:18:44.067Z,99.90
2022-08-09T22:21:27.416Z,99.90
2022-08-09T22:24:16.697Z,99.90
2022-08-09T22:26:51.333Z,99.90
2022-08-09T22:29:26.791Z,99.90
2022-08-09T22:32:00.176Z,99.90
2022-08-09T22:34:28.293Z,99.90
2022-08-09T22:36:57.678Z,99.90
2022-08-09T22:39:57.373Z,99.90
2022-08-09T22:42:20.626Z,99.90
2022-08-09T22:45:00.528Z,99.90
2022-08-09T22:48:18.555Z,99.90
2022-08-09T22:50:32.523Z,99.90
2022-08-09T22:53:03.506Z,99.90
2022-08-09T22:56:06.354Z,99.90
2022-08-09T22:58:32.525Z,99.90
2022-08-09T23:01:06.111Z,99.90
2022-08-09T23:04:03.907Z,99.90
2022-08-09T23:06:34.687Z,99.90
2022-08-09T23:09:07.243Z,99.90
2022-08-09T23:11:35.361Z,99.90
2022-08-09T23:14:03.970Z,99.90
2022-08-09T23:16:32.143Z,99.90
2022-08-09T23:19:00.774Z,99.90
2022-08-09T23:21:33.389Z,99.90
2022-08-09T23:24:05.915Z,99.90
2022-08-09T23:26:39.533Z,99.90
2022-08-09T23:29:11.559Z,99.90
2022-08-09T23:31:40.374Z,99.90
2022-08-09T23:34:08.995Z,99.90
2022-08-09T23:36:37.234Z,99.90
2022-08-09T23:39:06.356Z,99.90
2022-08-09T23:41:34.909Z,99.90
2022-08-09T23:44:03.189Z,99.90
2022-08-09T23:46:31.400Z,99.90
2022-08-09T23:49:00.338Z,99.90
2022-08-09T23:51:28.651Z,99.90
2022-08-09T23:54:02.607Z,99.90
2022-08-09T23:56:53.553Z,99.90
2022-08-09T23:59:21.638Z,99.90
